sensor_id;sensor_type;location;lat;lon;timestamp;pressure;altitude;pressure_sealevel;temperature;humidity
42621;BME280;28252;53.336;-6.298;2023-01-25T00:00:28;103022.56;;;23.59;93.65
42621;BME280;28252;53.336;-6.298;2023-01-25T00:01:06;103016.72;;;23.64;92.87
42621;BME280;28252;53.336;-6.298;2023-01-25T00:01:37;103013.28;;;23.62;93.23
42621;BME280;28252;53.336;-6.298;2023-01-25T00:02:12;103016.16;;;23.60;93.85
42621;BME280;28252;53.336;-6.298;2023-01-25T00:02:48;103021.31;;;23.63;93.49
42621;BME280;28252;53.336;-6.298;2023-01-25T00:03:21;103018.59;;;23.63;92.83
42621;BME280;28252;53.336;-6.298;2023-01-25T00:03:54;103017.84;;;23.61;92.94
42621;BME280;28252;53.336;-6.298;2023-01-25T00:04:29;103016.88;;;23.62;92.70
42621;BME280;28252;53.336;-6.298;2023-01-25T00:05:00;103019.59;;;23.62;92.63
42621;BME280;28252;53.336;-6.298;2023-01-25T00:05:31;103015.25;;;23.60;93.37
42621;BME280;28252;53.336;-6.298;2023-01-25T00:06:02;103024.31;;;23.60;93.14
42621;BME280;28252;53.336;-6.298;2023-01-25T00:06:42;103013.69;;;23.57;92.75
42621;BME280;28252;53.336;-6.298;2023-01-25T00:07:16;103010.97;;;23.57;92.45
42621;BME280;28252;53.336;-6.298;2023-01-25T00:07:56;103019.84;;;23.59;92.75
42621;BME280;28252;53.336;-6.298;2023-01-25T00:08:29;103016.69;;;23.54;93.36
42621;BME280;28252;53.336;-6.298;2023-01-25T00:09:03;103012.25;;;23.53;93.75
42621;BME280;28252;53.336;-6.298;2023-01-25T00:09:36;103011.50;;;23.51;93.13
42621;BME280;28252;53.336;-6.298;2023-01-25T00:10:07;103016.94;;;23.51;93.23
42621;BME280;28252;53.336;-6.298;2023-01-25T00:10:41;103008.78;;;23.51;92.86
42621;BME280;28252;53.336;-6.298;2023-01-25T00:11:14;103007.81;;;23.52;93.31
42621;BME280;28252;53.336;-6.298;2023-01-25T00:11:49;103009.81;;;23.50;93.17
42621;BME280;28252;53.336;-6.298;2023-01-25T00:12:25;103006.38;;;23.48;93.62
42621;BME280;28252;53.336;-6.298;2023-01-25T00:12:58;103000.63;;;23.51;93.11
42621;BME280;28252;53.336;-6.298;2023-01-25T00:13:31;103003.66;;;23.48;93.84
42621;BME280;28252;53.336;-6.298;2023-01-25T00:14:03;103001.19;;;23.45;94.31
42621;BME280;28252;53.336;-6.298;2023-01-25T00:14:34;103006.63;;;23.45;94.62
42621;BME280;28252;53.336;-6.298;2023-01-25T00:15:11;103001.47;;;23.42;93.88
42621;BME280;28252;53.336;-6.298;2023-01-25T00:15:45;103001.47;;;23.42;93.71
42621;BME280;28252;53.336;-6.298;2023-01-25T00:16:19;102998.75;;;23.42;93.82
42621;BME280;28252;53.336;-6.298;2023-01-25T00:16:52;103009.63;;;23.42;93.46
42621;BME280;28252;53.336;-6.298;2023-01-25T00:17:23;102998.88;;;23.40;93.68
42621;BME280;28252;53.336;-6.298;2023-01-25T00:18:01;103001.72;;;23.39;94.39
42621;BME280;28252;53.336;-6.298;2023-01-25T00:18:32;103002.72;;;23.38;94.26
42621;BME280;28252;53.336;-6.298;2023-01-25T00:19:08;103004.56;;;23.37;93.64
42621;BME280;28252;53.336;-6.298;2023-01-25T00:19:39;102998.28;;;23.37;93.83
42621;BME280;28252;53.336;-6.298;2023-01-25T00:20:11;103001.72;;;23.39;93.55
42621;BME280;28252;53.336;-6.298;2023-01-25T00:20:42;103002.00;;;23.36;94.32
42621;BME280;28252;53.336;-6.298;2023-01-25T00:21:17;103004.44;;;23.39;94.01
42621;BME280;28252;53.336;-6.298;2023-01-25T00:21:51;103002.88;;;23.36;94.25
42621;BME280;28252;53.336;-6.298;2023-01-25T00:22:22;102993.84;;;23.36;94.16
42621;BME280;28252;53.336;-6.298;2023-01-25T00:22:55;102991.09;;;23.36;93.93
42621;BME280;28252;53.336;-6.298;2023-01-25T00:23:34;102991.38;;;23.33;93.91
42621;BME280;28252;53.336;-6.298;2023-01-25T00:24:05;103001.41;;;23.32;93.79
42621;BME280;28252;53.336;-6.298;2023-01-25T00:24:45;102996.81;;;23.33;94.07
42621;BME280;28252;53.336;-6.298;2023-01-25T00:25:21;102998.81;;;23.30;93.89
42621;BME280;28252;53.336;-6.298;2023-01-25T00:25:59;102994.38;;;23.29;94.63
42621;BME280;28252;53.336;-6.298;2023-01-25T00:26:35;103006.25;;;23.28;94.84
42621;BME280;28252;53.336;-6.298;2023-01-25T00:27:08;103003.66;;;23.27;94.26
42621;BME280;28252;53.336;-6.298;2023-01-25T00:27:41;103001.66;;;23.29;93.72
42621;BME280;28252;53.336;-6.298;2023-01-25T00:28:14;102997.13;;;23.29;94.08
42621;BME280;28252;53.336;-6.298;2023-01-25T00:28:48;103001.66;;;23.29;94.47
42621;BME280;28252;53.336;-6.298;2023-01-25T00:29:24;102997.38;;;23.26;94.05
42621;BME280;28252;53.336;-6.298;2023-01-25T00:29:57;102997.63;;;23.23;94.64
42621;BME280;28252;53.336;-6.298;2023-01-25T00:30:28;102998.50;;;23.24;94.16
42621;BME280;28252;53.336;-6.298;2023-01-25T00:30:59;102997.91;;;23.20;95.15
42621;BME280;28252;53.336;-6.298;2023-01-25T00:32:27;102999.63;;;23.21;94.01
42621;BME280;28252;53.336;-6.298;2023-01-25T00:33:25;103000.75;;;23.19;95.10
42621;BME280;28252;53.336;-6.298;2023-01-25T00:34:50;103004.75;;;23.15;94.38
42621;BME280;28252;53.336;-6.298;2023-01-25T00:35:24;103003.91;;;23.14;94.81
42621;BME280;28252;53.336;-6.298;2023-01-25T00:36:02;103002.75;;;23.17;94.47
42621;BME280;28252;53.336;-6.298;2023-01-25T00:40:16;102997.88;;;23.10;94.67
42621;BME280;28252;53.336;-6.298;2023-01-25T00:40:49;102995.00;;;23.12;95.07
42621;BME280;28252;53.336;-6.298;2023-01-25T00:41:22;102987.00;;;23.10;94.98
42621;BME280;28252;53.336;-6.298;2023-01-25T00:41:58;102993.28;;;23.11;94.21
42621;BME280;28252;53.336;-6.298;2023-01-25T00:42:32;102991.28;;;23.13;94.54
42621;BME280;28252;53.336;-6.298;2023-01-25T00:43:05;102990.56;;;23.11;94.34
42621;BME280;28252;53.336;-6.298;2023-01-25T00:43:40;102988.09;;;23.08;94.46
42621;BME280;28252;53.336;-6.298;2023-01-25T00:44:11;102998.13;;;23.07;95.29
42621;BME280;28252;53.336;-6.298;2023-01-25T00:44:45;102988.09;;;23.08;94.58
42621;BME280;28252;53.336;-6.298;2023-01-25T00:45:21;102994.41;;;23.08;94.07
42621;BME280;28252;53.336;-6.298;2023-01-25T00:46:00;102995.28;;;23.09;95.00
42621;BME280;28252;53.336;-6.298;2023-01-25T00:46:34;102991.81;;;23.07;94.66
42621;BME280;28252;53.336;-6.298;2023-01-25T00:47:10;102995.53;;;23.06;94.68
42621;BME280;28252;53.336;-6.298;2023-01-25T00:47:45;102991.19;;;23.03;95.14
42621;BME280;28252;53.336;-6.298;2023-01-25T00:48:21;102990.34;;;23.03;94.55
42621;BME280;28252;53.336;-6.298;2023-01-25T00:48:53;102993.78;;;23.05;94.23
42621;BME280;28252;53.336;-6.298;2023-01-25T00:49:26;102997.50;;;23.04;94.87
42621;BME280;28252;53.336;-6.298;2023-01-25T00:49:59;103003.94;;;23.03;94.45
42621;BME280;28252;53.336;-6.298;2023-01-25T00:50:33;102989.63;;;23.01;95.12
42621;BME280;28252;53.336;-6.298;2023-01-25T00:51:06;102992.34;;;23.01;94.90
42621;BME280;28252;53.336;-6.298;2023-01-25T00:52:34;102994.03;;;23.02;94.65
42621;BME280;28252;53.336;-6.298;2023-01-25T00:53:10;102994.16;;;23.00;94.58
42621;BME280;28252;53.336;-6.298;2023-01-25T00:53:41;102989.75;;;22.99;94.88
42621;BME280;28252;53.336;-6.298;2023-01-25T00:54:16;102988.00;;;22.98;94.90
42621;BME280;28252;53.336;-6.298;2023-01-25T00:54:48;102990.84;;;22.97;95.59
42621;BME280;28252;53.336;-6.298;2023-01-25T00:55:19;102990.13;;;22.94;95.03
42621;BME280;28252;53.336;-6.298;2023-01-25T00:55:54;102991.88;;;22.96;95.10
42621;BME280;28252;53.336;-6.298;2023-01-25T00:56:25;103002.63;;;22.97;94.82
42621;BME280;28252;53.336;-6.298;2023-01-25T00:58:03;102988.91;;;22.99;94.47
42621;BME280;28252;53.336;-6.298;2023-01-25T00:58:39;102992.59;;;22.98;95.05
42621;BME280;28252;53.336;-6.298;2023-01-25T00:59:16;102987.28;;;22.96;94.80
42621;BME280;28252;53.336;-6.298;2023-01-25T00:59:47;102988.91;;;22.99;94.88
42621;BME280;28252;53.336;-6.298;2023-01-25T01:00:22;102984.69;;;22.94;95.09
42621;BME280;28252;53.336;-6.298;2023-01-25T01:00:56;102975.69;;;22.94;94.98
42621;BME280;28252;53.336;-6.298;2023-01-25T01:01:31;102986.56;;;22.94;95.04
42621;BME280;28252;53.336;-6.298;2023-01-25T01:02:11;102983.84;;;22.94;94.49
42621;BME280;28252;53.336;-6.298;2023-01-25T01:02:45;102981.97;;;22.94;95.25
42621;BME280;28252;53.336;-6.298;2023-01-25T01:03:21;102979.41;;;22.93;94.83
42621;BME280;28252;53.336;-6.298;2023-01-25T01:03:52;102983.25;;;22.90;95.02
42621;BME280;28252;53.336;-6.298;2023-01-25T01:04:26;102990.53;;;22.90;95.19
42621;BME280;28252;53.336;-6.298;2023-01-25T01:05:01;102986.94;;;22.89;94.60
42621;BME280;28252;53.336;-6.298;2023-01-25T01:05:35;102989.81;;;22.88;95.05
42621;BME280;28252;53.336;-6.298;2023-01-25T01:06:07;102986.09;;;22.89;95.18
42621;BME280;28252;53.336;-6.298;2023-01-25T01:06:43;102989.94;;;22.86;95.00
42621;BME280;28252;53.336;-6.298;2023-01-25T01:07:20;102986.22;;;22.87;95.13
42621;BME280;28252;53.336;-6.298;2023-01-25T01:07:51;102993.41;;;22.88;95.32
42621;BME280;28252;53.336;-6.298;2023-01-25T01:08:27;103001.41;;;22.90;94.68
42621;BME280;28252;53.336;-6.298;2023-01-25T01:09:00;102998.84;;;22.88;95.04
42621;BME280;28252;53.336;-6.298;2023-01-25T01:09:38;102998.84;;;22.88;94.50
42621;BME280;28252;53.336;-6.298;2023-01-25T01:10:11;102995.09;;;22.89;94.64
42621;BME280;28252;53.336;-6.298;2023-01-25T01:10:45;102994.63;;;22.84;95.00
42621;BME280;28252;53.336;-6.298;2023-01-25T01:11:19;102993.66;;;22.85;94.45
42621;BME280;28252;53.336;-6.298;2023-01-25T01:11:50;102995.38;;;22.86;94.87
42621;BME280;28252;53.336;-6.298;2023-01-25T01:12:23;102998.22;;;22.85;95.17
42621;BME280;28252;53.336;-6.298;2023-01-25T01:12:57;103001.09;;;22.83;95.41
42621;BME280;28252;53.336;-6.298;2023-01-25T01:13:30;103003.66;;;22.85;95.24
42621;BME280;28252;53.336;-6.298;2023-01-25T01:14:05;102994.78;;;22.83;95.38
42621;BME280;28252;53.336;-6.298;2023-01-25T01:14:39;103003.06;;;22.81;95.26
42621;BME280;28252;53.336;-6.298;2023-01-25T01:15:14;102992.31;;;22.80;95.06
42621;BME280;28252;53.336;-6.298;2023-01-25T01:15:49;102992.44;;;22.78;95.31
42621;BME280;28252;53.336;-6.298;2023-01-25T01:16:23;102999.88;;;22.76;94.84
42621;BME280;28252;53.336;-6.298;2023-01-25T01:16:59;102991.72;;;22.76;95.08
42621;BME280;28252;53.336;-6.298;2023-01-25T01:17:37;102990.00;;;22.75;95.41
42621;BME280;28252;53.336;-6.298;2023-01-25T01:18:10;102994.31;;;22.78;95.11
42621;BME280;28252;53.336;-6.298;2023-01-25T01:18:44;102997.88;;;22.78;94.76
42621;BME280;28252;53.336;-6.298;2023-01-25T01:19:15;102992.44;;;22.78;95.13
42621;BME280;28252;53.336;-6.298;2023-01-25T01:19:48;102994.31;;;22.78;95.48
42621;BME280;28252;53.336;-6.298;2023-01-25T01:20:19;102990.75;;;22.77;95.37
42621;BME280;28252;53.336;-6.298;2023-01-25T01:20:52;102995.31;;;22.77;95.40
42621;BME280;28252;53.336;-6.298;2023-01-25T01:21:25;102995.31;;;22.77;94.91
42621;BME280;28252;53.336;-6.298;2023-01-25T01:22:01;102988.88;;;22.78;95.26
42621;BME280;28252;53.336;-6.298;2023-01-25T01:22:35;102997.88;;;22.78;94.85
42621;BME280;28252;53.336;-6.298;2023-01-25T01:23:06;102995.91;;;22.80;95.97
42621;BME280;28252;53.336;-6.298;2023-01-25T01:23:39;102994.44;;;22.76;96.45
42621;BME280;28252;53.336;-6.298;2023-01-25T01:24:15;102992.72;;;22.75;96.08
42621;BME280;28252;53.336;-6.298;2023-01-25T01:24:49;102999.88;;;22.76;96.25
42621;BME280;28252;53.336;-6.298;2023-01-25T01:25:25;102991.00;;;22.74;96.21
42621;BME280;28252;53.336;-6.298;2023-01-25T01:26:01;102996.44;;;22.74;96.01
42621;BME280;28252;53.336;-6.298;2023-01-25T01:26:37;102998.41;;;22.72;96.14
42621;BME280;28252;53.336;-6.298;2023-01-25T01:27:11;103000.53;;;22.68;96.45
42621;BME280;28252;53.336;-6.298;2023-01-25T01:27:44;102998.69;;;22.69;96.58
42621;BME280;28252;53.336;-6.298;2023-01-25T01:28:17;103005.09;;;22.68;96.86
42621;BME280;28252;53.336;-6.298;2023-01-25T01:28:48;102996.94;;;22.68;96.60
42621;BME280;28252;53.336;-6.298;2023-01-25T01:29:22;102992.53;;;22.67;96.31
42621;BME280;28252;53.336;-6.298;2023-01-25T01:29:58;102998.81;;;22.67;96.58
42621;BME280;28252;53.336;-6.298;2023-01-25T01:30:31;102998.94;;;22.66;96.61
42621;BME280;28252;53.336;-6.298;2023-01-25T01:31:06;102996.34;;;22.64;97.09
42621;BME280;28252;53.336;-6.298;2023-01-25T01:31:41;102998.22;;;22.64;96.95
42621;BME280;28252;53.336;-6.298;2023-01-25T01:32:23;102997.47;;;22.62;97.19
42621;BME280;28252;53.336;-6.298;2023-01-25T01:32:55;102996.47;;;22.63;96.71
42621;BME280;28252;53.336;-6.298;2023-01-25T01:33:29;103003.91;;;22.61;96.95
42621;BME280;28252;53.336;-6.298;2023-01-25T01:34:05;102999.47;;;22.60;96.74
42621;BME280;28252;53.336;-6.298;2023-01-25T01:34:36;102999.47;;;22.60;96.91
42621;BME280;28252;53.336;-6.298;2023-01-25T01:35:07;102997.59;;;22.60;97.11
42621;BME280;28252;53.336;-6.298;2023-01-25T01:35:38;102995.75;;;22.61;97.01
42621;BME280;28252;53.336;-6.298;2023-01-25T01:36:11;102998.72;;;22.57;97.03
42621;BME280;28252;53.336;-6.298;2023-01-25T01:36:44;102992.31;;;22.59;96.77
42621;BME280;28252;53.336;-6.298;2023-01-25T01:37:20;102991.44;;;22.58;96.80
42621;BME280;28252;53.336;-6.298;2023-01-25T01:37:51;102996.88;;;22.58;97.01
42621;BME280;28252;53.336;-6.298;2023-01-25T01:38:25;102989.84;;;22.55;96.90
42621;BME280;28252;53.336;-6.298;2023-01-25T01:39:02;102997.25;;;22.53;97.06
42621;BME280;28252;53.336;-6.298;2023-01-25T01:39:36;102994.56;;;22.53;96.99
42621;BME280;28252;53.336;-6.298;2023-01-25T01:40:12;102996.41;;;22.53;97.07
42621;BME280;28252;53.336;-6.298;2023-01-25T01:40:46;102998.25;;;22.52;97.52
42621;BME280;28252;53.336;-6.298;2023-01-25T01:41:20;103002.81;;;22.52;97.43
42621;BME280;28252;53.336;-6.298;2023-01-25T01:41:51;102994.94;;;22.49;97.95
42621;BME280;28252;53.336;-6.298;2023-01-25T01:42:26;103002.22;;;22.48;98.11
42621;BME280;28252;53.336;-6.298;2023-01-25T01:43:01;102997.78;;;22.47;97.98
42621;BME280;28252;53.336;-6.298;2023-01-25T01:43:41;103001.50;;;22.46;98.33
42621;BME280;28252;53.336;-6.298;2023-01-25T01:44:16;102993.34;;;22.46;97.93
42621;BME280;28252;53.336;-6.298;2023-01-25T01:44:53;102996.06;;;22.46;98.03
42621;BME280;28252;53.336;-6.298;2023-01-25T01:46:32;102987.19;;;22.44;98.42
42621;BME280;28252;53.336;-6.298;2023-01-25T01:46:39;102991.63;;;22.45;98.40
42621;BME280;28252;53.336;-6.298;2023-01-25T01:47:52;102993.59;;;22.43;98.15
42621;BME280;28252;53.336;-6.298;2023-01-25T01:49:09;102991.88;;;22.42;97.96
42621;BME280;28252;53.336;-6.298;2023-01-25T01:49:43;102991.03;;;22.42;98.45
42621;BME280;28252;53.336;-6.298;2023-01-25T01:50:21;102981.13;;;22.41;97.71
42621;BME280;28252;53.336;-6.298;2023-01-25T01:50:59;102991.28;;;22.38;98.75
42621;BME280;28252;53.336;-6.298;2023-01-25T01:51:47;102985.00;;;22.38;98.98
42621;BME280;28252;53.336;-6.298;2023-01-25T01:52:27;102980.41;;;22.38;98.23
42621;BME280;28252;53.336;-6.298;2023-01-25T01:53:04;102979.56;;;22.38;98.79
42621;BME280;28252;53.336;-6.298;2023-01-25T01:53:41;102986.72;;;22.39;98.15
42621;BME280;28252;53.336;-6.298;2023-01-25T01:54:17;102983.25;;;22.37;99.13
42621;BME280;28252;53.336;-6.298;2023-01-25T01:54:54;102976.13;;;22.36;98.07
42621;BME280;28252;53.336;-6.298;2023-01-25T01:55:27;102981.53;;;22.36;98.52
42621;BME280;28252;53.336;-6.298;2023-01-25T01:56:01;102983.53;;;22.34;98.21
42621;BME280;28252;53.336;-6.298;2023-01-25T01:56:38;102978.09;;;22.34;98.85
42621;BME280;28252;53.336;-6.298;2023-01-25T01:57:14;102978.97;;;22.34;98.26
42621;BME280;28252;53.336;-6.298;2023-01-25T01:57:51;102978.09;;;22.34;98.07
42621;BME280;28252;53.336;-6.298;2023-01-25T01:58:24;102987.22;;;22.33;98.12
42621;BME280;28252;53.336;-6.298;2023-01-25T01:58:55;102978.09;;;22.34;98.31
42621;BME280;28252;53.336;-6.298;2023-01-25T01:59:33;102977.22;;;22.33;99.06
42621;BME280;28252;53.336;-6.298;2023-01-25T02:00:11;102977.34;;;22.32;98.99
42621;BME280;28252;53.336;-6.298;2023-01-25T02:00:49;102981.94;;;22.31;98.81
42621;BME280;28252;53.336;-6.298;2023-01-25T02:01:22;102969.19;;;22.32;98.41
42621;BME280;28252;53.336;-6.298;2023-01-25T02:01:53;102979.81;;;22.35;98.30
42621;BME280;28252;53.336;-6.298;2023-01-25T02:02:27;102971.91;;;22.32;98.49
42621;BME280;28252;53.336;-6.298;2023-01-25T02:02:58;102976.63;;;22.30;98.76
42621;BME280;28252;53.336;-6.298;2023-01-25T02:03:38;102976.38;;;22.33;98.70
42621;BME280;28252;53.336;-6.298;2023-01-25T02:04:12;102973.66;;;22.33;98.97
42621;BME280;28252;53.336;-6.298;2023-01-25T02:04:47;102969.47;;;22.29;98.48
42621;BME280;28252;53.336;-6.298;2023-01-25T02:05:34;102977.47;;;22.30;99.27
42621;BME280;28252;53.336;-6.298;2023-01-25T02:07:33;102974.63;;;22.32;98.19
42621;BME280;28252;53.336;-6.298;2023-01-25T02:08:07;102965.75;;;22.30;99.12
42621;BME280;28252;53.336;-6.298;2023-01-25T02:08:42;102971.19;;;22.30;98.81
42621;BME280;28252;53.336;-6.298;2023-01-25T02:09:16;102972.19;;;22.29;98.76
42621;BME280;28252;53.336;-6.298;2023-01-25T02:09:52;102973.19;;;22.28;98.80
42621;BME280;28252;53.336;-6.298;2023-01-25T02:10:24;102970.47;;;22.28;98.38
42621;BME280;28252;53.336;-6.298;2023-01-25T02:10:59;102968.59;;;22.28;98.11
42621;BME280;28252;53.336;-6.298;2023-01-25T02:11:33;102968.81;;;22.25;98.93
42621;BME280;28252;53.336;-6.298;2023-01-25T02:12:07;102967.13;;;22.24;98.90
42621;BME280;28252;53.336;-6.298;2023-01-25T02:12:41;102977.13;;;22.24;98.71
42621;BME280;28252;53.336;-6.298;2023-01-25T02:13:16;102966.25;;;22.24;99.43
42621;BME280;28252;53.336;-6.298;2023-01-25T02:13:52;102972.66;;;22.23;99.19
42621;BME280;28252;53.336;-6.298;2023-01-25T02:14:27;102974.41;;;22.24;99.21
42621;BME280;28252;53.336;-6.298;2023-01-25T02:14:58;102974.41;;;22.24;98.71
42621;BME280;28252;53.336;-6.298;2023-01-25T02:15:52;102964.53;;;22.23;98.74
42621;BME280;28252;53.336;-6.298;2023-01-25T02:16:24;102967.97;;;22.25;98.99
42621;BME280;28252;53.336;-6.298;2023-01-25T02:16:56;102961.81;;;22.23;98.76
42621;BME280;28252;53.336;-6.298;2023-01-25T02:17:34;102960.69;;;22.25;98.98
42621;BME280;28252;53.336;-6.298;2023-01-25T02:18:10;102963.38;;;22.25;98.79
42621;BME280;28252;53.336;-6.298;2023-01-25T02:18:43;102963.38;;;22.25;98.25
42621;BME280;28252;53.336;-6.298;2023-01-25T02:19:17;102963.38;;;22.25;98.78
42621;BME280;28252;53.336;-6.298;2023-01-25T02:19:59;102966.25;;;22.24;98.69
42621;BME280;28252;53.336;-6.298;2023-01-25T02:20:37;102960.84;;;22.24;98.63
42621;BME280;28252;53.336;-6.298;2023-01-25T02:21:14;102968.22;;;22.22;99.06
42621;BME280;28252;53.336;-6.298;2023-01-25T02:21:49;102966.50;;;22.20;99.77
42621;BME280;28252;53.336;-6.298;2023-01-25T02:22:29;102970.22;;;22.19;99.90
42621;BME280;28252;53.336;-6.298;2023-01-25T02:23:21;102970.47;;;22.16;99.78
42621;BME280;28252;53.336;-6.298;2023-01-25T02:24:00;102969.72;;;22.14;99.49
42621;BME280;28252;53.336;-6.298;2023-01-25T02:24:39;102965.91;;;22.17;99.66
42621;BME280;28252;53.336;-6.298;2023-01-25T02:25:17;102976.78;;;22.17;100.00
42621;BME280;28252;53.336;-6.298;2023-01-25T02:25:48;102976.91;;;22.15;99.95
42621;BME280;28252;53.336;-6.298;2023-01-25T02:26:24;102973.28;;;22.15;100.00
42621;BME280;28252;53.336;-6.298;2023-01-25T02:27:00;102975.16;;;22.14;100.00
42621;BME280;28252;53.336;-6.298;2023-01-25T02:27:32;102980.72;;;22.13;99.66
42621;BME280;28252;53.336;-6.298;2023-01-25T02:28:51;102974.19;;;22.15;99.74
42621;BME280;28252;53.336;-6.298;2023-01-25T02:29:26;102974.19;;;22.15;99.74
42621;BME280;28252;53.336;-6.298;2023-01-25T02:30:07;102980.72;;;22.13;100.00
42621;BME280;28252;53.336;-6.298;2023-01-25T02:30:43;102981.56;;;22.13;100.00
42621;BME280;28252;53.336;-6.298;2023-01-25T02:31:17;102979.84;;;22.12;100.00
42621;BME280;28252;53.336;-6.298;2023-01-25T02:31:48;102982.69;;;22.11;99.85
42621;BME280;28252;53.336;-6.298;2023-01-25T02:32:24;102976.41;;;22.10;100.00
42621;BME280;28252;53.336;-6.298;2023-01-25T02:33:01;102977.41;;;22.09;100.00
42621;BME280;28252;53.336;-6.298;2023-01-25T02:33:37;102981.84;;;22.10;99.55
42621;BME280;28252;53.336;-6.298;2023-01-25T02:34:08;102981.84;;;22.10;100.00
42621;BME280;28252;53.336;-6.298;2023-01-25T02:34:44;102980.84;;;22.11;100.00
42621;BME280;28252;53.336;-6.298;2023-01-25T02:35:19;102980.22;;;22.08;99.95
42621;BME280;28252;53.336;-6.298;2023-01-25T02:36:14;102978.66;;;22.05;100.00
42621;BME280;28252;53.336;-6.298;2023-01-25T02:36:46;102985.78;;;22.06;100.00
42621;BME280;28252;53.336;-6.298;2023-01-25T02:37:22;102985.78;;;22.06;100.00
42621;BME280;28252;53.336;-6.298;2023-01-25T02:37:59;102974.94;;;22.06;99.99
42621;BME280;28252;53.336;-6.298;2023-01-25T02:38:37;102981.25;;;22.07;100.00
42621;BME280;28252;53.336;-6.298;2023-01-25T02:39:13;102978.66;;;22.05;100.00
42621;BME280;28252;53.336;-6.298;2023-01-25T02:39:50;102984.06;;;22.05;99.52
42621;BME280;28252;53.336;-6.298;2023-01-25T02:40:30;102979.50;;;22.06;99.98
42621;BME280;28252;53.336;-6.298;2023-01-25T02:41:11;102980.34;;;22.06;100.00
42621;BME280;28252;53.336;-6.298;2023-01-25T02:41:47;102973.22;;;22.05;100.00
42621;BME280;28252;53.336;-6.298;2023-01-25T02:42:21;102976.91;;;22.04;100.00
42621;BME280;28252;53.336;-6.298;2023-01-25T02:42:54;102976.91;;;22.04;100.00
42621;BME280;28252;53.336;-6.298;2023-01-25T02:43:30;102974.44;;;22.01;100.00
42621;BME280;28252;53.336;-6.298;2023-01-25T02:44:12;102973.34;;;22.04;99.55
42621;BME280;28252;53.336;-6.298;2023-01-25T02:44:49;102974.06;;;22.06;99.94
42621;BME280;28252;53.336;-6.298;2023-01-25T02:45:24;102975.81;;;22.07;99.65
42621;BME280;28252;53.336;-6.298;2023-01-25T02:46:13;102971.50;;;22.04;99.86
42621;BME280;28252;53.336;-6.298;2023-01-25T02:46:48;102966.19;;;22.02;99.53
42621;BME280;28252;53.336;-6.298;2023-01-25T02:47:21;102970.03;;;22.00;99.91
42621;BME280;28252;53.336;-6.298;2023-01-25T02:47:54;102969.03;;;22.01;100.00
42621;BME280;28252;53.336;-6.298;2023-01-25T02:48:29;102976.31;;;22.00;100.00
42621;BME280;28252;53.336;-6.298;2023-01-25T02:49:03;102966.31;;;22.01;100.00
42621;BME280;28252;53.336;-6.298;2023-01-25T02:49:37;102976.31;;;22.00;99.90
42621;BME280;28252;53.336;-6.298;2023-01-25T02:50:13;102976.31;;;22.00;99.84
42621;BME280;28252;53.336;-6.298;2023-01-25T02:50:47;102969.16;;;21.99;99.44
42621;BME280;28252;53.336;-6.298;2023-01-25T02:51:23;102971.84;;;21.99;99.80
42621;BME280;28252;53.336;-6.298;2023-01-25T02:51:58;102974.56;;;21.99;99.52
42621;BME280;28252;53.336;-6.298;2023-01-25T02:52:32;102967.56;;;21.97;100.00
42621;BME280;28252;53.336;-6.298;2023-01-25T02:53:03;102959.53;;;21.95;99.99
42621;BME280;28252;53.336;-6.298;2023-01-25T02:53:36;102966.97;;;21.93;100.00
42621;BME280;28252;53.336;-6.298;2023-01-25T02:54:10;102963.38;;;21.93;100.00
42621;BME280;28252;53.336;-6.298;2023-01-25T02:54:42;102968.66;;;21.94;99.98
42621;BME280;28252;53.336;-6.298;2023-01-25T02:55:18;102957.94;;;21.93;99.60
42621;BME280;28252;53.336;-6.298;2023-01-25T02:55:52;102958.22;;;21.90;100.00
42621;BME280;28252;53.336;-6.298;2023-01-25T02:56:27;102956.22;;;21.92;100.00
42621;BME280;28252;53.336;-6.298;2023-01-25T02:56:58;102961.41;;;21.95;99.85
42621;BME280;28252;53.336;-6.298;2023-01-25T02:57:40;102957.69;;;21.96;99.59
42621;BME280;28252;53.336;-6.298;2023-01-25T02:58:13;102960.28;;;21.97;99.66
42621;BME280;28252;53.336;-6.298;2023-01-25T02:58:46;102961.13;;;21.98;99.41
42621;BME280;28252;53.336;-6.298;2023-01-25T02:59:20;102958.41;;;21.98;100.00
42621;BME280;28252;53.336;-6.298;2023-01-25T02:59:56;102959.44;;;21.97;100.00
42621;BME280;28252;53.336;-6.298;2023-01-25T03:00:33;102967.44;;;21.98;99.85
42621;BME280;28252;53.336;-6.298;2023-01-25T03:01:09;102961.13;;;21.98;99.84
42621;BME280;28252;53.336;-6.298;2023-01-25T03:01:45;102956.72;;;21.97;99.80
42621;BME280;28252;53.336;-6.298;2023-01-25T03:02:20;102962.13;;;21.97;99.88
42621;BME280;28252;53.336;-6.298;2023-01-25T03:02:52;102964.84;;;21.97;99.98
42621;BME280;28252;53.336;-6.298;2023-01-25T03:03:23;102959.66;;;21.94;100.00
42621;BME280;28252;53.336;-6.298;2023-01-25T03:03:54;102966.34;;;21.90;100.00
42621;BME280;28252;53.336;-6.298;2023-01-25T03:04:28;102965.34;;;21.91;100.00
42621;BME280;28252;53.336;-6.298;2023-01-25T03:05:02;102966.34;;;21.90;100.00
42621;BME280;28252;53.336;-6.298;2023-01-25T03:05:33;102962.75;;;21.89;100.00
42621;BME280;28252;53.336;-6.298;2023-01-25T03:06:04;102966.34;;;21.90;100.00
42621;BME280;28252;53.336;-6.298;2023-01-25T03:06:38;102969.31;;;21.87;100.00
42621;BME280;28252;53.336;-6.298;2023-01-25T03:07:14;102966.72;;;21.85;100.00
42621;BME280;28252;53.336;-6.298;2023-01-25T03:07:47;102959.56;;;21.84;100.00
42621;BME280;28252;53.336;-6.298;2023-01-25T03:08:20;102965.88;;;21.85;100.00
42621;BME280;28252;53.336;-6.298;2023-01-25T03:08:58;102970.53;;;21.82;100.00
42621;BME280;28252;53.336;-6.298;2023-01-25T03:09:34;102959.97;;;21.79;100.00
42621;BME280;28252;53.336;-6.298;2023-01-25T03:10:10;102966.13;;;21.81;100.00
42621;BME280;28252;53.336;-6.298;2023-01-25T03:10:45;102959.97;;;21.79;100.00
42621;BME280;28252;53.336;-6.298;2023-01-25T03:11:19;102962.69;;;21.79;100.00